createdAt,value
2023-05-24T00:00:04.808Z,3.80
2023-05-24T00:01:04.793Z,3.50
2023-05-24T00:02:04.813Z,3.70
2023-05-24T00:03:04.981Z,3.60
2023-05-24T00:04:04.865Z,4.10
2023-05-24T00:05:04.829Z,4.20
2023-05-24T00:06:04.771Z,3.30
2023-05-24T00:07:04.918Z,3.90
2023-05-24T00:08:04.711Z,3.30
2023-05-24T00:09:04.674Z,3.40
2023-05-24T00:10:04.697Z,4.00
2023-05-24T00:11:04.671Z,3.50
2023-05-24T00:12:04.727Z,4.00
2023-05-24T00:13:04.630Z,4.10
2023-05-24T00:14:04.650Z,3.60
2023-05-24T00:15:04.631Z,3.70
2023-05-24T00:16:04.622Z,3.60
2023-05-24T00:17:04.679Z,3.90
2023-05-24T00:18:04.650Z,3.70
2023-05-24T00:19:04.574Z,3.20
2023-05-24T00:20:06.662Z,3.80
2023-05-24T00:21:04.548Z,3.60
2023-05-24T00:22:04.581Z,3.30
2023-05-24T00:23:04.543Z,3.50
2023-05-24T00:24:04.566Z,3.30
2023-05-24T00:25:04.518Z,3.40
2023-05-24T00:26:04.505Z,3.50
2023-05-24T00:27:04.483Z,3.50
2023-05-24T00:28:04.469Z,3.40
2023-05-24T00:29:04.481Z,3.80
2023-05-24T00:30:04.487Z,3.60
2023-05-24T00:31:04.438Z,3.50
2023-05-24T00:32:04.537Z,4.20
2023-05-24T00:33:04.519Z,3.70
2023-05-24T00:34:04.450Z,3.80
2023-05-24T00:35:04.410Z,3.90
2023-05-24T00:36:04.391Z,3.60
2023-05-24T00:37:04.370Z,3.10
2023-05-24T00:38:04.390Z,3.60
2023-05-24T00:39:04.357Z,3.30
2023-05-24T00:40:04.408Z,3.60
2023-05-24T00:41:04.341Z,3.50
2023-05-24T00:42:04.837Z,3.60
2023-05-24T00:43:04.335Z,3.70
2023-05-24T00:44:04.309Z,3.60
2023-05-24T00:45:04.305Z,3.60
2023-05-24T00:46:04.345Z,3.60
2023-05-24T00:47:04.286Z,3.70
2023-05-24T00:48:04.343Z,3.20
2023-05-24T00:49:04.259Z,3.70
2023-05-24T00:50:04.226Z,3.80
2023-05-24T00:51:04.227Z,3.60
2023-05-24T00:52:04.219Z,3.10
2023-05-24T00:53:04.211Z,3.80
2023-05-24T00:54:04.679Z,3.20
2023-05-24T00:55:04.189Z,3.30
2023-05-24T00:56:04.199Z,3.20
2023-05-24T00:57:04.169Z,3.70
2023-05-24T00:58:04.142Z,3.50
2023-05-24T00:59:04.141Z,3.30
2023-05-24T01:00:04.129Z,3.50
2023-05-24T01:01:04.146Z,3.40
2023-05-24T01:02:04.339Z,3.30
2023-05-24T01:03:04.200Z,3.10
2023-05-24T01:04:04.092Z,3.40
2023-05-24T01:05:04.075Z,3.50
2023-05-24T01:06:04.268Z,3.00
2023-05-24T01:07:04.079Z,2.90
2023-05-24T01:08:04.080Z,3.70
2023-05-24T01:09:04.056Z,3.50
2023-05-24T01:10:04.087Z,3.20
2023-05-24T01:11:04.027Z,3.10
2023-05-24T01:12:08.037Z,3.30
2023-05-24T01:13:03.999Z,3.20
2023-05-24T01:14:04.003Z,3.30
2023-05-24T01:15:03.966Z,3.90
2023-05-24T01:16:03.998Z,3.10
2023-05-24T01:17:03.963Z,3.60
2023-05-24T01:18:03.994Z,3.30
2023-05-24T01:19:03.917Z,3.10
2023-05-24T01:20:03.961Z,3.20
2023-05-24T01:21:03.896Z,3.10
2023-05-24T01:22:03.917Z,3.10
2023-05-24T01:23:03.889Z,3.00
2023-05-24T01:24:03.904Z,3.70
2023-05-24T01:25:03.904Z,3.20
2023-05-24T01:26:03.901Z,4.00
2023-05-24T01:27:03.860Z,3.40
2023-05-24T01:28:04.039Z,3.20
2023-05-24T01:29:03.832Z,3.30
2023-05-24T01:30:03.882Z,3.00
2023-05-24T01:31:03.803Z,3.00
2023-05-24T01:32:03.830Z,3.20
2023-05-24T01:33:03.812Z,3.50
2023-05-24T01:34:03.790Z,3.20
2023-05-24T01:35:03.743Z,3.10
2023-05-24T01:36:03.741Z,3.30
2023-05-24T01:37:03.731Z,3.30
2023-05-24T01:38:03.715Z,3.40
2023-05-24T01:39:03.710Z,3.80
2023-05-24T01:40:03.696Z,3.50
2023-05-24T01:41:03.698Z,4.00
2023-05-24T01:42:03.674Z,3.20
2023-05-24T01:43:03.653Z,3.80
2023-05-24T01:44:03.650Z,4.00
2023-05-24T01:45:03.662Z,3.40
2023-05-24T01:46:03.649Z,3.30
2023-05-24T01:47:03.635Z,3.50
2023-05-24T01:48:03.661Z,4.10
2023-05-24T01:49:03.582Z,2.90
2023-05-24T01:50:03.586Z,3.60
2023-05-24T01:51:03.560Z,3.10
2023-05-24T01:52:03.668Z,3.60
2023-05-24T01:53:03.541Z,3.60
2023-05-24T01:54:03.621Z,3.80
2023-05-24T01:55:03.526Z,3.70
2023-05-24T01:56:03.653Z,3.20
2023-05-24T01:57:03.507Z,3.70
2023-05-24T01:58:03.484Z,3.30
2023-05-24T01:59:03.491Z,3.30
2023-05-24T02:00:05.164Z,3.30
2023-05-24T02:01:03.473Z,3.30
2023-05-24T02:02:03.565Z,3.80
2023-05-24T02:03:03.695Z,3.90
2023-05-24T02:04:03.465Z,3.60
2023-05-24T02:05:03.413Z,3.50
2023-05-24T02:06:03.442Z,3.40
2023-05-24T02:07:03.395Z,3.70
2023-05-24T02:08:03.378Z,3.20
2023-05-24T02:09:03.363Z,3.60
2023-05-24T02:10:03.651Z,4.00
2023-05-24T02:11:03.366Z,3.80
2023-05-24T02:12:03.437Z,3.60
2023-05-24T02:13:03.403Z,3.70
2023-05-24T02:14:03.548Z,3.60
2023-05-24T02:15:03.300Z,3.40
2023-05-24T02:16:03.305Z,3.70
2023-05-24T02:17:03.467Z,3.70
2023-05-24T02:18:03.315Z,3.20
2023-05-24T02:19:03.259Z,3.50
2023-05-24T02:20:03.293Z,3.80
2023-05-24T02:21:03.328Z,3.80
2023-05-24T02:22:03.253Z,3.60
2023-05-24T02:23:03.214Z,3.90
2023-05-24T02:24:03.216Z,3.70
2023-05-24T02:25:03.221Z,3.80
2023-05-24T02:26:03.205Z,3.70
2023-05-24T02:27:03.177Z,3.60
2023-05-24T02:28:03.155Z,3.30
2023-05-24T02:29:03.146Z,3.30
2023-05-24T02:30:03.150Z,3.30
2023-05-24T02:31:03.143Z,3.40
2023-05-24T02:32:03.156Z,4.10
2023-05-24T02:33:03.203Z,3.40
2023-05-24T02:34:03.098Z,3.80
2023-05-24T02:35:03.110Z,4.00
2023-05-24T02:36:03.081Z,3.30
2023-05-24T02:37:03.063Z,3.70
2023-05-24T02:38:03.099Z,3.70
2023-05-24T02:39:03.080Z,3.40
2023-05-24T02:40:03.148Z,3.60
2023-05-24T02:41:03.044Z,3.70
2023-05-24T02:42:03.015Z,3.40
2023-05-24T02:43:03.014Z,3.50
2023-05-24T02:44:02.981Z,3.60
2023-05-24T02:45:02.970Z,3.20
2023-05-24T02:46:03.046Z,3.60
2023-05-24T02:47:02.955Z,3.40
2023-05-24T02:48:02.977Z,3.30
2023-05-24T02:49:02.926Z,3.40
2023-05-24T02:50:02.932Z,3.30
2023-05-24T02:51:02.929Z,3.80
2023-05-24T02:52:02.897Z,3.60
2023-05-24T02:53:02.901Z,3.70
2023-05-24T02:54:03.441Z,4.40
2023-05-24T02:55:02.862Z,3.50
2023-05-24T02:56:02.862Z,3.90
2023-05-24T02:57:02.854Z,3.90
2023-05-24T02:58:02.854Z,4.50
2023-05-24T02:59:02.869Z,3.80
2023-05-24T03:00:02.825Z,3.90
2023-05-24T03:01:02.796Z,4.10
2023-05-24T03:02:02.859Z,3.80
2023-05-24T03:03:02.897Z,3.70
2023-05-24T03:04:03.034Z,3.90
2023-05-24T03:05:02.753Z,3.90
2023-05-24T03:06:02.769Z,3.80
2023-05-24T03:07:02.753Z,4.00
2023-05-24T03:08:02.715Z,3.50
2023-05-24T03:09:02.711Z,4.30
2023-05-24T03:10:02.730Z,3.60
2023-05-24T03:11:02.695Z,3.80
2023-05-24T03:12:02.705Z,4.30
2023-05-24T03:13:02.691Z,3.60
2023-05-24T03:14:02.654Z,4.10
2023-05-24T03:15:02.664Z,3.70
2023-05-24T03:16:02.705Z,3.80
2023-05-24T03:17:02.641Z,3.80
2023-05-24T03:18:02.694Z,4.20
2023-05-24T03:19:02.609Z,4.10
2023-05-24T03:20:02.733Z,4.00
2023-05-24T03:21:02.614Z,4.00
2023-05-24T03:22:02.591Z,4.40
2023-05-24T03:23:02.562Z,4.90
2023-05-24T03:24:02.621Z,4.90
2023-05-24T03:25:02.546Z,4.50
2023-05-24T03:26:02.609Z,5.00
2023-05-24T03:27:02.533Z,4.80
2023-05-24T03:28:02.538Z,5.10
2023-05-24T03:29:02.495Z,4.40
2023-05-24T03:30:02.579Z,4.30
2023-05-24T03:31:02.505Z,4.50
2023-05-24T03:32:02.633Z,3.80
2023-05-24T03:33:02.525Z,4.40
2023-05-24T03:34:02.481Z,4.30
2023-05-24T03:35:02.453Z,4.50
2023-05-24T03:36:02.442Z,4.20
2023-05-24T03:37:02.400Z,4.90
2023-05-24T03:38:02.462Z,4.50
2023-05-24T03:39:02.393Z,5.00
2023-05-24T03:40:02.421Z,4.00
2023-05-24T03:41:02.364Z,4.00
2023-05-24T03:42:02.417Z,4.60
2023-05-24T03:43:04.365Z,5.00
2023-05-24T03:44:02.356Z,4.50
2023-05-24T03:45:02.310Z,5.10
2023-05-24T03:46:02.413Z,4.90
2023-05-24T03:47:02.292Z,4.40
2023-05-24T03:48:02.380Z,4.50
2023-05-24T03:49:02.281Z,4.80
2023-05-24T03:50:02.298Z,4.10
2023-05-24T03:51:02.248Z,4.90
2023-05-24T03:52:02.777Z,4.50
2023-05-24T03:53:02.253Z,4.30
2023-05-24T03:54:02.645Z,4.80
2023-05-24T03:55:02.225Z,4.20
2023-05-24T03:56:02.198Z,4.50
2023-05-24T03:57:02.179Z,4.80
2023-05-24T03:58:02.196Z,5.10
2023-05-24T03:59:02.167Z,4.60
2023-05-24T04:00:02.212Z,4.70
2023-05-24T04:01:02.160Z,4.40
2023-05-24T04:02:02.177Z,4.80
2023-05-24T04:03:02.212Z,4.80
2023-05-24T04:04:02.303Z,5.00
2023-05-24T04:05:02.097Z,4.30
2023-05-24T04:06:02.160Z,4.40
2023-05-24T04:07:02.116Z,4.80
2023-05-24T04:08:02.194Z,4.20
2023-05-24T04:09:02.056Z,4.70
2023-05-24T04:10:02.080Z,5.00
2023-05-24T04:11:02.038Z,5.20
2023-05-24T04:12:02.200Z,4.80
2023-05-24T04:13:02.048Z,4.90
2023-05-24T04:14:01.998Z,4.90
2023-05-24T04:15:02.028Z,5.00
2023-05-24T04:16:02.012Z,4.90
2023-05-24T04:17:02.307Z,5.00
2023-05-24T04:18:02.000Z,4.90
2023-05-24T04:19:02.099Z,5.20
2023-05-24T04:20:01.979Z,5.50
2023-05-24T04:21:01.930Z,4.70
2023-05-24T04:22:01.905Z,4.70
2023-05-24T04:23:01.910Z,5.40
2023-05-24T04:24:01.946Z,5.60
2023-05-24T04:25:01.916Z,4.80
2023-05-24T04:26:01.924Z,5.00
2023-05-24T04:27:01.875Z,5.60
2023-05-24T04:28:01.941Z,5.00
2023-05-24T04:29:01.844Z,5.90
2023-05-24T04:30:01.844Z,5.40
2023-05-24T04:31:01.838Z,5.00
2023-05-24T04:32:01.827Z,5.10
2023-05-24T04:33:01.851Z,5.10
2023-05-24T04:34:01.823Z,4.80
2023-05-24T04:35:01.776Z,5.00
2023-05-24T04:36:01.767Z,5.00
2023-05-24T04:37:01.753Z,5.20
2023-05-24T04:38:01.755Z,5.10
2023-05-24T04:39:01.735Z,4.70
2023-05-24T04:40:01.728Z,4.70
2023-05-24T04:41:01.705Z,5.20
2023-05-24T04:42:01.703Z,5.60
2023-05-24T04:43:01.718Z,5.40
2023-05-24T04:44:01.691Z,5.80
2023-05-24T04:45:01.684Z,4.70
2023-05-24T04:46:01.654Z,5.00
2023-05-24T04:47:01.706Z,5.20
2023-05-24T04:48:01.977Z,5.30
2023-05-24T04:49:01.629Z,5.20
2023-05-24T04:50:01.671Z,4.70
2023-05-24T04:51:01.602Z,4.80
2023-05-24T04:52:01.621Z,4.30
2023-05-24T04:53:01.581Z,5.40
2023-05-24T04:54:01.629Z,4.60
2023-05-24T04:55:01.548Z,4.80
2023-05-24T04:56:01.558Z,5.20
2023-05-24T04:57:01.530Z,4.80
2023-05-24T04:58:01.522Z,4.50
2023-05-24T04:59:01.680Z,5.10
2023-05-24T05:00:01.573Z,4.70
2023-05-24T05:01:01.483Z,4.70
2023-05-24T05:02:01.575Z,4.80
2023-05-24T05:03:01.593Z,4.90
2023-05-24T05:04:01.476Z,5.00
2023-05-24T05:05:01.452Z,4.80
2023-05-24T05:06:01.441Z,5.30
2023-05-24T05:07:01.429Z,5.70
2023-05-24T05:08:01.428Z,4.90
2023-05-24T05:09:01.819Z,5.00
2023-05-24T05:10:01.395Z,5.40
2023-05-24T05:11:01.377Z,4.80
2023-05-24T05:12:01.376Z,5.10
2023-05-24T05:13:01.374Z,5.00
2023-05-24T05:14:01.338Z,4.70
2023-05-24T05:15:01.328Z,4.70
2023-05-24T05:16:01.331Z,5.70
2023-05-24T05:17:01.311Z,4.60
2023-05-24T05:18:01.336Z,5.00
2023-05-24T05:19:01.287Z,5.60
2023-05-24T05:20:01.313Z,5.70
2023-05-24T05:21:01.269Z,5.20
2023-05-24T05:22:01.265Z,5.00
2023-05-24T05:23:01.242Z,5.00
2023-05-24T05:24:01.283Z,5.50
2023-05-24T05:25:01.237Z,5.50
2023-05-24T05:26:01.240Z,5.20
2023-05-24T05:27:01.204Z,5.80
2023-05-24T05:28:01.189Z,5.10
2023-05-24T05:29:01.224Z,5.20
2023-05-24T05:30:01.202Z,6.30
2023-05-24T05:31:01.169Z,5.60
2023-05-24T05:32:01.217Z,5.10
2023-05-24T05:33:01.202Z,5.00
2023-05-24T05:34:01.122Z,5.10
2023-05-24T05:35:01.132Z,5.40
2023-05-24T05:36:01.124Z,5.60
2023-05-24T05:37:01.110Z,5.60
2023-05-24T05:38:01.092Z,6.00
2023-05-24T05:39:01.071Z,6.20
2023-05-24T05:40:01.055Z,7.00
2023-05-24T05:41:01.112Z,6.20
2023-05-24T05:42:01.050Z,6.10
2023-05-24T05:43:01.033Z,6.00
2023-05-24T05:44:01.024Z,6.20
2023-05-24T05:45:01.021Z,5.90
2023-05-24T05:46:01.039Z,6.50
2023-05-24T05:47:01.001Z,5.70
2023-05-24T05:48:01.046Z,5.90
2023-05-24T05:49:00.955Z,6.80
2023-05-24T05:50:00.952Z,6.10
2023-05-24T05:51:00.944Z,6.30
2023-05-24T05:52:00.955Z,6.10
2023-05-24T05:53:00.923Z,6.40
2023-05-24T05:54:00.931Z,6.70
2023-05-24T05:55:00.917Z,6.30
2023-05-24T05:56:00.949Z,6.70
2023-05-24T05:57:01.756Z,6.50
2023-05-24T05:58:00.877Z,6.90
2023-05-24T05:59:00.846Z,6.20
2023-05-24T06:00:00.866Z,6.50
2023-05-24T06:01:00.826Z,5.70
2023-05-24T06:02:00.846Z,6.10
2023-05-24T06:03:00.881Z,5.70
2023-05-24T06:04:00.871Z,5.60
2023-05-24T06:05:00.797Z,5.80
2023-05-24T06:06:00.770Z,6.10
2023-05-24T06:07:00.777Z,5.90
2023-05-24T06:08:00.794Z,6.40
2023-05-24T06:09:00.747Z,5.70
2023-05-24T06:10:00.737Z,5.40
2023-05-24T06:11:00.713Z,5.80
2023-05-24T06:12:00.724Z,6.20
2023-05-24T06:13:00.685Z,5.60
2023-05-24T06:14:00.727Z,5.90
2023-05-24T06:15:00.681Z,5.20
2023-05-24T06:16:00.696Z,5.90
2023-05-24T06:17:00.653Z,6.30
2023-05-24T06:18:00.741Z,7.00
2023-05-24T06:19:06.025Z,6.80
2023-05-24T06:20:01.690Z,6.30
2023-05-24T06:21:00.610Z,6.70
2023-05-24T06:22:00.585Z,5.60
2023-05-24T06:23:00.600Z,5.80
2023-05-24T06:24:00.583Z,7.30
2023-05-24T06:25:00.562Z,6.50
2023-05-24T06:26:00.555Z,6.40
2023-05-24T06:27:00.828Z,6.70
2023-05-24T06:28:00.552Z,6.50
2023-05-24T06:29:00.529Z,7.10
2023-05-24T06:30:00.562Z,6.80
2023-05-24T06:31:00.585Z,7.10
2023-05-24T06:32:00.529Z,6.50
2023-05-24T06:33:00.548Z,7.10
2023-05-24T06:34:03.759Z,6.70
2023-05-24T06:35:00.458Z,6.60
2023-05-24T06:36:00.455Z,7.70
2023-05-24T06:37:00.438Z,7.20
2023-05-24T06:38:00.465Z,7.20
2023-05-24T06:39:00.406Z,6.80
2023-05-24T06:40:00.414Z,6.90
2023-05-24T06:41:00.381Z,7.00
2023-05-24T06:42:00.518Z,6.70
2023-05-24T06:43:00.363Z,6.60
2023-05-24T06:44:00.361Z,6.70
2023-05-24T06:45:00.375Z,6.80
2023-05-24T06:46:00.329Z,7.90
2023-05-24T06:47:00.455Z,6.30
2023-05-24T06:48:00.470Z,6.90
2023-05-24T06:49:00.444Z,6.60
2023-05-24T06:50:00.301Z,6.50
2023-05-24T06:51:00.275Z,6.50
2023-05-24T06:52:00.281Z,6.60
2023-05-24T06:53:00.251Z,6.50
2023-05-24T06:54:00.248Z,6.90
2023-05-24T06:55:00.238Z,6.30
2023-05-24T06:56:00.241Z,6.70
2023-05-24T06:57:00.221Z,6.90
2023-05-24T06:58:00.202Z,6.80
2023-05-24T06:59:00.205Z,7.20
2023-05-24T07:00:00.178Z,6.30
2023-05-24T07:01:00.213Z,6.80
2023-05-24T07:02:01.989Z,6.20
2023-05-24T07:03:00.209Z,6.40
2023-05-24T07:04:00.172Z,6.60
2023-05-24T07:05:00.197Z,6.30
2023-05-24T07:06:00.162Z,6.10
2023-05-24T07:07:00.138Z,6.90
2023-05-24T07:08:00.133Z,6.40
2023-05-24T07:09:00.084Z,6.30
2023-05-24T07:10:00.090Z,6.50
2023-05-24T07:11:00.086Z,6.50
2023-05-24T07:12:00.060Z,6.40
2023-05-24T07:13:00.129Z,6.70
2023-05-24T07:14:00.033Z,6.20
2023-05-24T07:15:00.027Z,6.20
2023-05-24T07:15:59.999Z,6.40
2023-05-24T07:17:00.174Z,6.40
2023-05-24T07:18:00.006Z,6.60
2023-05-24T07:19:01.328Z,6.40
2023-05-24T07:20:00.021Z,5.60
2023-05-24T07:20:59.942Z,4.80
2023-05-24T07:21:59.935Z,5.10
2023-05-24T07:22:59.939Z,5.10
2023-05-24T07:23:59.935Z,6.20
2023-05-24T07:24:59.908Z,5.40
2023-05-24T07:25:59.908Z,5.50
2023-05-24T07:26:59.877Z,5.40
2023-05-24T07:27:59.866Z,5.20
2023-05-24T07:28:59.882Z,5.50
2023-05-24T07:29:59.845Z,5.40
2023-05-24T07:30:59.857Z,5.40
2023-05-24T07:31:59.856Z,5.20
2023-05-24T07:32:59.961Z,5.20
2023-05-24T07:33:59.817Z,5.20
2023-05-24T07:34:59.792Z,5.20
2023-05-24T07:35:59.790Z,5.40
2023-05-24T07:36:59.762Z,5.20
2023-05-24T07:37:59.776Z,4.90
2023-05-24T07:38:59.763Z,4.90
2023-05-24T07:39:59.737Z,5.60
2023-05-24T07:40:59.715Z,4.90
2023-05-24T07:41:59.735Z,5.00
2023-05-24T07:42:59.720Z,4.80
2023-05-24T07:43:59.702Z,5.00
2023-05-24T07:44:59.677Z,5.00
2023-05-24T07:45:59.726Z,4.70
2023-05-24T07:46:59.746Z,5.20
2023-05-24T07:47:59.755Z,4.90
2023-05-24T07:48:59.649Z,5.30
2023-05-24T07:49:59.641Z,5.00
2023-05-24T07:50:59.631Z,4.90
2023-05-24T07:51:59.667Z,4.80
2023-05-24T07:52:59.621Z,5.30
2023-05-24T07:53:59.597Z,4.90
2023-05-24T07:54:59.569Z,4.90
2023-05-24T07:55:59.584Z,4.80
2023-05-24T07:56:59.573Z,4.80
2023-05-24T07:57:59.555Z,4.70
2023-05-24T07:58:59.552Z,4.80
2023-05-24T07:59:59.542Z,4.90
2023-05-24T08:00:59.524Z,5.60
2023-05-24T08:01:59.510Z,5.20
2023-05-24T08:02:59.581Z,4.80
2023-05-24T08:03:59.628Z,4.70
2023-05-24T08:04:59.551Z,4.80
2023-05-24T08:05:59.462Z,4.80
2023-05-24T08:06:59.546Z,4.80
2023-05-24T08:07:59.434Z,4.70
2023-05-24T08:08:59.408Z,5.20
2023-05-24T08:09:59.414Z,5.40
2023-05-24T08:10:59.417Z,5.00
2023-05-24T08:11:59.393Z,4.60
2023-05-24T08:12:59.367Z,4.60
2023-05-24T08:13:59.388Z,4.70
2023-05-24T08:14:59.372Z,4.70
2023-05-24T08:15:59.397Z,5.10
2023-05-24T08:16:59.322Z,4.90
2023-05-24T08:17:59.362Z,4.80
2023-05-24T08:18:59.312Z,4.60
2023-05-24T08:19:59.331Z,4.20
2023-05-24T08:20:59.278Z,4.50
2023-05-24T08:21:59.272Z,4.70
2023-05-24T08:22:59.272Z,4.50
2023-05-24T08:23:59.257Z,4.60
2023-05-24T08:24:59.243Z,4.20
2023-05-24T08:25:59.234Z,4.90
2023-05-24T08:26:59.222Z,4.40
2023-05-24T08:27:59.261Z,4.70
2023-05-24T08:28:59.200Z,5.00
2023-05-24T08:29:59.203Z,4.90
2023-05-24T08:30:59.163Z,4.50
2023-05-24T08:31:59.241Z,4.80
2023-05-24T08:32:59.218Z,4.30
2023-05-24T08:33:59.165Z,4.70
2023-05-24T08:35:14.804Z,5.30
2023-05-24T08:36:00.162Z,4.20
2023-05-24T08:36:59.103Z,4.30
2023-05-24T08:37:59.105Z,4.70
2023-05-24T08:38:59.113Z,4.80
2023-05-24T08:39:59.064Z,5.30
2023-05-24T08:40:59.077Z,4.70
2023-05-24T08:42:08.620Z,5.00
2023-05-24T08:43:00.056Z,4.40
2023-05-24T08:43:59.050Z,4.30
2023-05-24T08:44:59.031Z,4.00
2023-05-24T08:45:59.118Z,4.50
2023-05-24T08:46:59.005Z,4.40
2023-05-24T08:47:59.122Z,4.50
2023-05-24T08:48:59.002Z,4.60
2023-05-24T08:49:58.970Z,4.50
2023-05-24T08:50:58.953Z,4.50
2023-05-24T08:51:58.942Z,4.60
2023-05-24T08:52:58.965Z,4.20
2023-05-24T08:53:58.926Z,4.30
2023-05-24T08:54:58.913Z,4.60
2023-05-24T08:55:58.905Z,4.70
2023-05-24T08:56:58.898Z,4.30
2023-05-24T08:57:58.955Z,4.60
2023-05-24T08:58:58.869Z,4.40
2023-05-24T08:59:58.858Z,4.40
2023-05-24T09:00:58.862Z,4.60
2023-05-24T09:01:58.877Z,4.60
2023-05-24T09:02:58.886Z,4.40
2023-05-24T09:03:58.844Z,4.20
2023-05-24T09:04:58.808Z,4.30
2023-05-24T09:05:58.794Z,4.20
2023-05-24T09:06:58.785Z,4.40
2023-05-24T09:07:58.765Z,4.20
2023-05-24T09:08:58.759Z,4.80
2023-05-24T09:09:58.748Z,4.20
2023-05-24T09:10:59.066Z,4.70
2023-05-24T09:11:58.753Z,4.10
2023-05-24T09:12:58.716Z,4.90
2023-05-24T09:13:58.711Z,4.70
2023-05-24T09:14:58.789Z,4.50
2023-05-24T09:15:58.695Z,4.60
2023-05-24T09:16:58.668Z,4.40
2023-05-24T09:17:58.710Z,4.30
2023-05-24T09:18:58.656Z,4.40
2023-05-24T09:19:58.674Z,4.60
2023-05-24T09:20:58.712Z,3.90
2023-05-24T09:21:58.616Z,4.10
2023-05-24T09:22:58.612Z,4.50
2023-05-24T09:23:58.605Z,3.70
2023-05-24T09:24:58.590Z,4.90
2023-05-24T09:25:58.586Z,4.10
2023-05-24T09:26:58.574Z,4.90
2023-05-24T09:27:58.557Z,4.50
2023-05-24T09:28:58.543Z,4.00
2023-05-24T09:29:58.568Z,4.30
2023-05-24T09:30:58.656Z,4.80
2023-05-24T09:31:58.611Z,4.40
2023-05-24T09:32:58.642Z,4.70
2023-05-24T09:33:58.484Z,4.30
2023-05-24T09:34:58.493Z,4.50
2023-05-24T09:35:58.464Z,4.40
2023-05-24T09:36:58.458Z,5.00
2023-05-24T09:37:58.440Z,4.50
2023-05-24T09:38:58.430Z,4.70
2023-05-24T09:39:58.463Z,4.50
2023-05-24T09:40:58.422Z,4.60
2023-05-24T09:41:58.387Z,4.30
2023-05-24T09:42:58.381Z,4.50
2023-05-24T09:43:58.381Z,5.10
2023-05-24T09:44:58.377Z,4.80
2023-05-24T09:45:58.354Z,4.60
2023-05-24T09:46:58.350Z,4.70
2023-05-24T09:47:58.369Z,4.40
2023-05-24T09:48:58.368Z,4.90
2023-05-24T09:49:58.310Z,4.40
2023-05-24T09:50:58.298Z,4.50
2023-05-24T09:51:58.321Z,4.60
2023-05-24T09:52:58.290Z,4.60
2023-05-24T09:53:58.289Z,4.70
2023-05-24T09:54:58.250Z,4.20
2023-05-24T09:55:58.241Z,4.30
2023-05-24T09:56:58.234Z,4.30
2023-05-24T09:57:58.244Z,4.40
2023-05-24T09:58:58.227Z,5.00
2023-05-24T09:59:58.194Z,4.10
2023-05-24T10:00:58.218Z,4.70
2023-05-24T10:01:58.178Z,4.80
2023-05-24T10:02:58.209Z,4.80
2023-05-24T10:03:58.312Z,4.80
2023-05-24T10:04:58.342Z,4.40
2023-05-24T10:05:58.127Z,5.50
2023-05-24T10:06:58.151Z,4.30
2023-05-24T10:07:58.121Z,4.10
2023-05-24T10:08:58.110Z,3.90
2023-05-24T10:09:58.088Z,4.10
2023-05-24T10:10:58.078Z,4.10
2023-05-24T10:11:58.090Z,4.60
2023-05-24T10:12:58.056Z,4.50
2023-05-24T10:13:58.108Z,4.20
2023-05-24T10:14:58.056Z,4.80
2023-05-24T10:15:58.038Z,4.80
2023-05-24T10:16:58.090Z,4.60
2023-05-24T10:17:58.109Z,5.00
2023-05-24T10:18:57.991Z,4.90
2023-05-24T10:19:58.028Z,5.20
2023-05-24T10:20:58.340Z,4.80
2023-05-24T10:21:58.056Z,5.00
2023-05-24T10:22:57.961Z,4.90
2023-05-24T10:23:57.932Z,5.00
2023-05-24T10:24:57.937Z,4.60
2023-05-24T10:25:57.939Z,4.80
2023-05-24T10:26:57.908Z,5.30
2023-05-24T10:27:57.901Z,4.80
2023-05-24T10:28:57.890Z,5.10
2023-05-24T10:29:57.888Z,5.00
2023-05-24T10:30:57.909Z,5.10
2023-05-24T10:31:57.956Z,4.70
2023-05-24T10:32:57.879Z,4.80
2023-05-24T10:34:06.630Z,5.50
2023-05-24T10:34:58.827Z,5.40
2023-05-24T10:35:57.837Z,5.30
2023-05-24T10:36:57.792Z,5.70
2023-05-24T10:37:57.776Z,5.80
2023-05-24T10:38:57.782Z,5.60
2023-05-24T10:39:57.794Z,5.60
2023-05-24T10:40:57.745Z,5.50
2023-05-24T10:41:57.737Z,5.50
2023-05-24T10:42:57.724Z,5.20
2023-05-24T10:44:09.169Z,5.50
2023-05-24T10:44:58.713Z,5.50
2023-05-24T10:45:57.707Z,5.30
2023-05-24T10:46:57.685Z,5.70
2023-05-24T10:47:57.735Z,5.70
2023-05-24T10:48:57.680Z,5.90
2023-05-24T10:49:57.661Z,5.40
2023-05-24T10:50:57.656Z,6.10
2023-05-24T10:51:57.644Z,5.90
2023-05-24T10:52:57.636Z,6.20
2023-05-24T10:53:57.619Z,6.10
2023-05-24T10:55:03.383Z,5.90
2023-05-24T10:55:58.583Z,6.10
2023-05-24T10:56:57.569Z,5.70
2023-05-24T10:57:57.567Z,5.60
2023-05-24T10:58:57.558Z,5.10
2023-05-24T10:59:57.549Z,5.70
2023-05-24T11:00:57.527Z,6.00
2023-05-24T11:01:57.556Z,7.30
2023-05-24T11:02:57.562Z,8.20
2023-05-24T11:03:57.512Z,8.90
2023-05-24T11:04:57.532Z,8.30
2023-05-24T11:05:57.585Z,9.10
2023-05-24T11:06:57.458Z,9.50
2023-05-24T11:07:57.482Z,9.20
2023-05-24T11:08:57.445Z,8.80
2023-05-24T11:09:57.443Z,9.00
2023-05-24T11:10:57.423Z,9.10
2023-05-24T11:11:57.416Z,8.90
2023-05-24T11:12:57.401Z,8.30
2023-05-24T11:13:57.664Z,8.80
2023-05-24T11:14:57.389Z,7.80
2023-05-24T11:15:57.371Z,7.40
2023-05-24T11:16:57.405Z,8.20
2023-05-24T11:17:57.392Z,7.30
2023-05-24T11:18:57.335Z,7.20
2023-05-24T11:19:57.364Z,7.20
2023-05-24T11:20:57.315Z,8.10
2023-05-24T11:21:57.355Z,8.10
2023-05-24T11:22:57.320Z,8.50
2023-05-24T11:23:57.312Z,8.70
2023-05-24T11:24:57.284Z,8.80
2023-05-24T11:25:57.253Z,8.70
2023-05-24T11:26:57.332Z,9.10
2023-05-24T11:27:57.269Z,8.50
2023-05-24T11:28:57.243Z,8.90
2023-05-24T11:29:57.226Z,8.30
2023-05-24T11:30:57.227Z,8.70
2023-05-24T11:31:57.266Z,8.70
2023-05-24T11:32:57.270Z,9.00
2023-05-24T11:33:57.191Z,8.90
2023-05-24T11:34:57.163Z,8.80
2023-05-24T11:35:57.166Z,8.40
2023-05-24T11:36:57.141Z,8.20
2023-05-24T11:37:57.154Z,8.60
2023-05-24T11:38:57.108Z,9.10
2023-05-24T11:39:57.113Z,8.70
2023-05-24T11:40:57.116Z,8.10
2023-05-24T11:41:57.086Z,8.50
2023-05-24T11:42:57.067Z,8.10
2023-05-24T11:43:57.064Z,8.50
2023-05-24T11:44:57.072Z,8.60
2023-05-24T11:45:57.091Z,8.10
2023-05-24T11:46:57.041Z,8.20
2023-05-24T11:47:57.056Z,8.50
2023-05-24T11:48:57.009Z,9.30
2023-05-24T11:49:57.076Z,7.90
2023-05-24T11:50:57.007Z,8.70
2023-05-24T11:51:57.054Z,8.30
2023-05-24T11:52:56.960Z,7.50
2023-05-24T11:53:56.973Z,6.80
2023-05-24T11:54:56.952Z,6.90
2023-05-24T11:55:56.932Z,7.10
2023-05-24T11:56:56.910Z,6.70
2023-05-24T11:57:56.909Z,7.30
2023-05-24T11:58:56.912Z,6.40
2023-05-24T11:59:56.911Z,6.60
2023-05-24T12:00:56.881Z,6.90
2023-05-24T12:01:56.914Z,7.10
2023-05-24T12:02:57.324Z,7.00
2023-05-24T12:03:56.959Z,7.30
2023-05-24T12:04:56.868Z,7.80
2023-05-24T12:05:56.846Z,7.10
2023-05-24T12:06:56.816Z,8.40
2023-05-24T12:07:56.819Z,8.20
2023-05-24T12:08:56.800Z,8.00
2023-05-24T12:09:56.782Z,8.40
2023-05-24T12:10:56.761Z,8.10
2023-05-24T12:11:56.775Z,7.90
2023-05-24T12:12:56.745Z,8.30
2023-05-24T12:13:56.737Z,7.70
2023-05-24T12:14:56.720Z,8.70
2023-05-24T12:15:57.109Z,8.00
2023-05-24T12:16:56.703Z,8.20
2023-05-24T12:17:56.941Z,8.40
2023-05-24T12:19:05.372Z,8.00
2023-05-24T12:19:57.745Z,8.50
2023-05-24T12:20:56.672Z,8.30
2023-05-24T12:21:56.647Z,8.20
2023-05-24T12:22:56.642Z,8.20
2023-05-24T12:23:56.645Z,8.20
2023-05-24T12:24:56.605Z,8.70
2023-05-24T12:25:56.599Z,8.30
2023-05-24T12:26:56.623Z,7.60
2023-05-24T12:27:56.580Z,7.60
2023-05-24T12:28:56.572Z,7.10
2023-05-24T12:29:56.554Z,7.70
2023-05-24T12:30:56.563Z,7.70
2023-05-24T12:31:56.588Z,7.40
2023-05-24T12:32:56.601Z,6.50
2023-05-24T12:33:56.523Z,6.50
2023-05-24T12:34:56.495Z,6.10
2023-05-24T12:35:56.509Z,6.00
2023-05-24T12:36:56.489Z,6.60
2023-05-24T12:37:56.449Z,6.50
2023-05-24T12:38:56.503Z,6.80
2023-05-24T12:39:56.441Z,7.10
2023-05-24T12:41:11.419Z,7.40
2023-05-24T12:42:01.201Z,6.40
2023-05-24T12:42:56.412Z,6.20
2023-05-24T12:43:56.409Z,7.10
2023-05-24T12:44:56.394Z,6.50
2023-05-24T12:45:56.383Z,6.20
2023-05-24T12:46:56.403Z,6.10
2023-05-24T12:47:56.364Z,6.00
2023-05-24T12:48:56.327Z,5.20
2023-05-24T12:49:56.346Z,6.30
2023-05-24T12:50:56.340Z,5.80
2023-05-24T12:51:56.292Z,5.40
2023-05-24T12:52:56.292Z,5.50
2023-05-24T12:53:56.289Z,5.50
2023-05-24T12:54:56.264Z,5.90
2023-05-24T12:55:56.348Z,6.00
2023-05-24T12:56:57.220Z,6.00
2023-05-24T12:57:56.224Z,6.10
2023-05-24T12:58:56.226Z,6.20
2023-05-24T12:59:56.249Z,6.30
2023-05-24T13:00:56.258Z,6.00
2023-05-24T13:01:56.236Z,6.40
2023-05-24T13:02:56.218Z,5.50
2023-05-24T13:03:56.166Z,6.60
2023-05-24T13:04:56.209Z,6.30
2023-05-24T13:05:56.162Z,5.80
2023-05-24T13:06:56.140Z,5.60
2023-05-24T13:07:56.129Z,5.90
2023-05-24T13:08:56.121Z,5.80
2023-05-24T13:09:56.113Z,5.10
2023-05-24T13:10:56.095Z,5.60
2023-05-24T13:11:56.108Z,5.70
2023-05-24T13:12:56.069Z,5.40
2023-05-24T13:13:56.069Z,5.60
2023-05-24T13:14:56.064Z,5.60
2023-05-24T13:15:56.030Z,6.30
2023-05-24T13:16:56.071Z,5.70
2023-05-24T13:17:56.060Z,5.30